KLOU/LOU METAR and TAF weather

Enter ICAO airport designator
Station Type Date Time Source
KLOU METAR 2023/02/05 22:53 UTC NOAA

KLOU 052253Z 25011KT 10SM CLR 11/02 A3003 RMK AO2 PK WND 25026/2154 SLP168 T01110017


Station Type Date Time Source
KLOU Decoded METAR 2023/02/05 22:53 UTC NOAA

BOWMAN FIELD, KY, United States (KLOU) 38-14N 085-40W 164M
Feb 05, 2023 - 05:53 PM EST / 2023.02.05 2253 UTC
Wind: from the WSW (250 degrees) at 13 MPH (11 KT):0
Visibility: 10 mile(s):0
Sky conditions: clear
Temperature: 52.0 F (11.1 C)
Dew Point: 35.1 F (1.7 C)
Relative Humidity: 52%
Pressure (altimeter): 30.03 in. Hg (1016 hPa)
ob: KLOU 052253Z 25011KT 10SM CLR 11/02 A3003 RMK AO2 PK WND 25026/2154 SLP168 T01110017
cycle: 23

Station Type Date Time Source
KLOU TAF UTC NOAA

Error!

Example: see airport list